createdAt,value
2023-03-08T00:01:49.623Z,6.07
2023-03-08T00:04:18.025Z,6.15
2023-03-08T00:06:46.186Z,4.45
2023-03-08T00:09:14.294Z,5.10
2023-03-08T00:11:42.549Z,7.30
2023-03-08T00:14:12.059Z,10.57
2023-03-08T00:16:40.146Z,4.10
2023-03-08T00:19:08.470Z,9.75
2023-03-08T00:21:36.600Z,4.82
2023-03-08T00:24:04.811Z,4.60
2023-03-08T00:26:33.298Z,7.13
2023-03-08T00:29:01.452Z,15.45
2023-03-08T00:31:31.172Z,4.90
2023-03-08T00:33:59.478Z,6.65
2023-03-08T00:36:27.653Z,7.22
2023-03-08T00:38:57.731Z,7.78
2023-03-08T00:41:25.880Z,11.85
2023-03-08T00:43:54.329Z,8.07
2023-03-08T00:46:22.590Z,9.77
2023-03-08T00:48:52.267Z,7.88
2023-03-08T00:51:21.982Z,9.82
2023-03-08T00:53:50.779Z,6.10
2023-03-08T00:56:19.299Z,8.45
2023-03-08T00:58:47.561Z,5.22
2023-03-08T01:01:17.824Z,7.80
2023-03-08T01:03:48.516Z,9.85
2023-03-08T01:06:18.450Z,6.63
2023-03-08T01:08:46.846Z,7.40
2023-03-08T01:11:20.228Z,9.93
2023-03-08T01:13:49.145Z,7.65
2023-03-08T01:16:19.374Z,5.78
2023-03-08T01:18:47.723Z,6.45
2023-03-08T01:21:16.125Z,9.40
2023-03-08T01:23:45.804Z,8.75
2023-03-08T01:26:17.138Z,7.25
2023-03-08T01:28:45.507Z,9.82
2023-03-08T01:31:15.794Z,6.43
2023-03-08T01:33:44.552Z,5.88
2023-03-08T01:36:15.172Z,6.55
2023-03-08T01:38:47.575Z,5.07
2023-03-08T01:41:18.067Z,10.10
2023-03-08T01:43:46.895Z,10.07
2023-03-08T01:46:25.721Z,6.22
2023-03-08T01:49:02.767Z,8.85
2023-03-08T01:51:38.354Z,9.77
2023-03-08T01:54:11.658Z,7.05
2023-03-08T01:56:41.605Z,7.15
2023-03-08T01:59:10.254Z,6.30
2023-03-08T02:01:40.011Z,7.18
2023-03-08T02:07:18.655Z,7.78
2023-03-08T02:09:49.164Z,9.55
2023-03-08T02:12:17.967Z,10.63
2023-03-08T02:14:46.969Z,10.38
2023-03-08T02:17:15.246Z,6.93
2023-03-08T02:19:47.551Z,8.95
2023-03-08T02:22:16.933Z,9.00
2023-03-08T02:24:47.536Z,8.98
2023-03-08T02:27:19.537Z,10.18
2023-03-08T02:29:47.710Z,13.02
2023-03-08T02:32:17.221Z,6.88
2023-03-08T02:34:45.674Z,7.90
2023-03-08T02:37:13.932Z,9.52
2023-03-08T02:39:42.414Z,8.90
2023-03-08T02:42:12.214Z,9.73
2023-03-08T02:44:40.326Z,8.25
2023-03-08T02:47:09.293Z,12.70
2023-03-08T02:49:37.722Z,10.43
2023-03-08T02:52:06.149Z,13.55
2023-03-08T02:54:34.455Z,13.52
2023-03-08T02:57:02.876Z,13.93
2023-03-08T02:59:32.843Z,15.95
2023-03-08T03:02:01.545Z,11.88
2023-03-08T03:04:31.158Z,11.52
2023-03-08T03:07:00.419Z,13.43
2023-03-08T03:09:29.653Z,13.50
2023-03-08T03:11:58.255Z,13.88
2023-03-08T03:14:28.661Z,11.48
2023-03-08T03:16:59.814Z,14.18
2023-03-08T03:19:28.179Z,15.68
2023-03-08T03:21:56.354Z,13.45
2023-03-08T03:24:24.783Z,12.98
2023-03-08T03:26:56.946Z,16.60
2023-03-08T03:29:28.062Z,12.93
2023-03-08T03:32:08.945Z,13.23
2023-03-08T03:34:37.698Z,13.55
2023-03-08T03:37:06.072Z,12.68
2023-03-08T03:39:39.222Z,16.63
2023-03-08T03:42:10.117Z,14.02
2023-03-08T03:44:43.409Z,22.23
2023-03-08T03:47:17.657Z,15.77
2023-03-08T03:49:47.696Z,14.23
2023-03-08T03:52:18.247Z,16.75
2023-03-08T03:54:55.137Z,17.40
2023-03-08T03:57:23.967Z,18.85
2023-03-08T03:59:52.811Z,16.33
2023-03-08T04:02:25.092Z,15.93
2023-03-08T04:04:58.812Z,17.17
2023-03-08T04:07:31.115Z,18.77
2023-03-08T04:10:01.787Z,20.77
2023-03-08T04:12:32.010Z,18.45
2023-03-08T04:15:00.216Z,17.73
2023-03-08T04:17:32.955Z,18.25
2023-03-08T04:20:01.249Z,21.92
2023-03-08T04:22:33.741Z,18.73
2023-03-08T04:25:08.990Z,19.60
2023-03-08T04:27:44.667Z,21.05
2023-03-08T04:30:13.967Z,21.00
2023-03-08T04:35:50.002Z,23.80
2023-03-08T04:38:20.808Z,19.50
2023-03-08T04:41:05.552Z,20.67
2023-03-08T04:43:58.126Z,21.10
2023-03-08T04:46:37.728Z,17.63
2023-03-08T04:49:06.434Z,21.48
2023-03-08T04:51:42.142Z,20.48
2023-03-08T04:54:11.119Z,22.58
2023-03-08T04:56:45.472Z,20.55
2023-03-08T04:59:15.701Z,20.17
2023-03-08T05:01:44.049Z,20.33
2023-03-08T05:04:13.578Z,18.15
2023-03-08T05:06:44.323Z,21.17
2023-03-08T05:09:16.533Z,19.48
2023-03-08T05:11:46.737Z,21.02
2023-03-08T05:14:16.977Z,22.23
2023-03-08T05:16:45.442Z,24.42
2023-03-08T05:19:15.117Z,19.77
2023-03-08T05:21:52.538Z,23.55
2023-03-08T05:24:21.243Z,21.17
2023-03-08T05:26:49.961Z,23.48
2023-03-08T05:29:19.956Z,23.27
2023-03-08T05:31:51.165Z,25.02
2023-03-08T05:34:20.455Z,25.70
2023-03-08T05:36:49.398Z,25.48
2023-03-08T05:39:19.130Z,21.77
2023-03-08T05:41:56.847Z,23.77
2023-03-08T05:44:30.760Z,23.20
2023-03-08T05:47:01.090Z,23.65
2023-03-08T05:49:29.697Z,22.88
2023-03-08T05:51:58.631Z,22.33
2023-03-08T05:54:30.204Z,22.10
2023-03-08T05:57:03.141Z,22.45
2023-03-08T05:59:32.760Z,23.00
2023-03-08T06:02:04.259Z,21.10
2023-03-08T06:04:46.219Z,20.90
2023-03-08T06:07:17.237Z,24.52
2023-03-08T06:09:52.315Z,21.27
2023-03-08T06:12:20.544Z,25.88
2023-03-08T06:14:53.431Z,22.50
2023-03-08T06:17:24.610Z,21.80
2023-03-08T06:19:54.142Z,23.92
2023-03-08T06:22:23.128Z,22.85
2023-03-08T06:24:55.050Z,19.60
2023-03-08T06:27:32.179Z,20.35
2023-03-08T06:30:07.025Z,23.92
2023-03-08T06:32:36.213Z,21.40
2023-03-08T06:35:04.838Z,24.67
2023-03-08T06:37:35.942Z,19.20
2023-03-08T06:40:09.871Z,21.35
2023-03-08T06:42:41.584Z,25.27
2023-03-08T06:45:14.662Z,23.00
2023-03-08T06:47:43.030Z,20.55
2023-03-08T06:50:13.017Z,19.15
2023-03-08T06:52:44.735Z,24.13
2023-03-08T06:55:15.149Z,20.52
2023-03-08T06:57:43.753Z,17.52
2023-03-08T07:00:13.433Z,18.95
2023-03-08T07:02:41.582Z,19.50
2023-03-08T07:05:10.871Z,18.00
2023-03-08T07:07:40.232Z,19.10
2023-03-08T07:10:10.950Z,17.60
2023-03-08T07:12:43.676Z,18.92
2023-03-08T07:15:14.539Z,16.80
2023-03-08T07:17:43.704Z,16.33
2023-03-08T07:20:13.033Z,16.98
2023-03-08T07:22:43.924Z,15.20
2023-03-08T07:25:13.180Z,17.10
2023-03-08T07:27:42.830Z,13.93
2023-03-08T07:30:14.049Z,16.08
2023-03-08T07:32:43.449Z,18.25
2023-03-08T07:35:13.924Z,16.33
2023-03-08T07:37:42.087Z,13.38
2023-03-08T07:40:12.810Z,15.82
2023-03-08T07:42:43.522Z,17.23
2023-03-08T07:45:24.689Z,16.30
2023-03-08T07:47:53.429Z,16.85
2023-03-08T07:50:22.343Z,18.80
2023-03-08T07:52:50.787Z,13.57
2023-03-08T07:55:19.181Z,13.98
2023-03-08T07:57:48.847Z,14.65
2023-03-08T08:00:17.850Z,18.23
2023-03-08T08:02:46.947Z,14.30
2023-03-08T08:05:15.547Z,12.88
2023-03-08T08:07:46.863Z,13.68
2023-03-08T08:10:15.251Z,14.82
2023-03-08T08:12:43.352Z,12.73
2023-03-08T08:15:13.758Z,13.73
2023-03-08T08:17:41.983Z,14.10
2023-03-08T08:20:11.531Z,11.75
2023-03-08T08:22:39.878Z,12.07
2023-03-08T08:25:09.455Z,11.45
2023-03-08T08:27:38.049Z,11.82
2023-03-08T08:30:07.892Z,11.65
2023-03-08T08:32:37.494Z,14.02
2023-03-08T08:35:06.543Z,12.75
2023-03-08T08:37:35.301Z,13.40
2023-03-08T08:40:03.998Z,11.07
2023-03-08T08:42:32.233Z,11.70
2023-03-08T08:45:00.713Z,12.68
2023-03-08T08:47:29.931Z,14.52
2023-03-08T08:49:59.643Z,14.88
2023-03-08T08:52:28.186Z,10.63
2023-03-08T08:54:56.769Z,13.05
2023-03-08T08:57:25.187Z,11.73
2023-03-08T08:59:53.782Z,11.32
2023-03-08T09:02:21.982Z,13.57
2023-03-08T09:04:50.199Z,10.15
2023-03-08T09:07:20.021Z,14.20
2023-03-08T09:09:48.259Z,10.13
2023-03-08T09:12:16.501Z,11.45
2023-03-08T09:14:44.987Z,13.32
2023-03-08T09:17:13.143Z,12.55
2023-03-08T09:19:41.555Z,12.50
2023-03-08T09:22:10.772Z,9.77
2023-03-08T09:24:40.360Z,11.32
2023-03-08T09:27:08.791Z,10.77
2023-03-08T09:29:38.259Z,9.07
2023-03-08T09:32:07.018Z,11.15
2023-03-08T09:34:35.456Z,10.75
2023-03-08T09:37:06.001Z,10.02
2023-03-08T09:39:34.502Z,11.35
2023-03-08T09:42:05.986Z,11.95
2023-03-08T09:44:53.286Z,11.20
2023-03-08T09:47:33.752Z,9.63
2023-03-08T09:50:10.968Z,11.02
2023-03-08T09:52:41.633Z,11.20
2023-03-08T09:55:28.356Z,20.20
2023-03-08T09:58:00.494Z,12.82
2023-03-08T10:00:32.796Z,11.27
2023-03-08T10:03:27.874Z,16.50
2023-03-08T10:06:05.016Z,12.82
2023-03-08T10:08:38.530Z,13.07
2023-03-08T10:11:15.984Z,8.07
2023-03-08T10:13:49.785Z,10.40
2023-03-08T10:16:23.804Z,10.88
2023-03-08T10:18:55.898Z,8.95
2023-03-08T10:21:27.138Z,10.52
2023-03-08T10:24:00.528Z,14.00
2023-03-08T10:26:29.997Z,11.23
2023-03-08T10:28:59.536Z,11.48
2023-03-08T10:31:30.269Z,10.05
2023-03-08T10:34:08.147Z,11.35
2023-03-08T10:36:47.486Z,13.32
2023-03-08T10:39:16.430Z,12.50
2023-03-08T10:41:47.471Z,14.40
2023-03-08T10:44:30.878Z,15.85
2023-03-08T10:46:58.979Z,11.40
2023-03-08T10:49:28.125Z,12.43
2023-03-08T10:51:58.852Z,14.90
2023-03-08T10:54:28.381Z,16.67
2023-03-08T10:56:59.262Z,18.35
2023-03-08T10:59:33.297Z,15.98
2023-03-08T11:02:04.113Z,17.15
2023-03-08T11:04:32.696Z,15.70
2023-03-08T11:07:11.817Z,13.80
2023-03-08T11:09:40.102Z,11.35
2023-03-08T11:12:24.511Z,10.68
2023-03-08T11:14:54.547Z,8.00
2023-03-08T11:17:29.513Z,9.73
2023-03-08T11:20:11.080Z,12.63
2023-03-08T11:23:14.759Z,9.40
2023-03-08T11:25:47.367Z,10.50
2023-03-08T11:28:30.479Z,10.85
2023-03-08T11:31:15.045Z,10.13
2023-03-08T11:34:09.749Z,9.07
2023-03-08T11:36:44.867Z,8.65
2023-03-08T11:39:20.057Z,11.07
2023-03-08T11:41:59.859Z,8.80
2023-03-08T11:44:42.146Z,9.30
2023-03-08T11:47:38.805Z,11.63
2023-03-08T11:50:13.532Z,9.45
2023-03-08T11:52:51.656Z,11.63
2023-03-08T11:55:37.708Z,11.32
2023-03-08T11:58:13.024Z,8.80
2023-03-08T12:00:44.223Z,9.70
2023-03-08T12:03:17.677Z,8.45
2023-03-08T12:05:51.625Z,8.32
2023-03-08T12:08:23.745Z,8.38
2023-03-08T12:10:58.124Z,8.15
2023-03-08T12:16:03.430Z,7.38
2023-03-08T12:18:38.987Z,7.85
2023-03-08T12:21:16.497Z,6.90
2023-03-08T12:23:52.353Z,8.07
2023-03-08T12:26:24.711Z,8.02
2023-03-08T12:28:57.312Z,8.10
2023-03-08T12:31:29.697Z,6.93
2023-03-08T12:34:00.935Z,10.95
2023-03-08T12:36:40.259Z,7.22
2023-03-08T12:39:10.285Z,5.95
2023-03-08T12:41:38.426Z,7.45
2023-03-08T12:44:08.507Z,7.00
2023-03-08T12:47:01.815Z,7.70
2023-03-08T12:49:34.836Z,6.07
2023-03-08T12:52:06.315Z,5.75
2023-03-08T12:54:36.766Z,8.52
2023-03-08T12:57:16.565Z,7.60
2023-03-08T12:59:46.907Z,6.32
2023-03-08T13:02:30.516Z,10.45
2023-03-08T13:05:30.070Z,7.60
2023-03-08T13:08:26.798Z,7.60
2023-03-08T13:11:04.009Z,9.27
2023-03-08T13:13:43.652Z,17.42
2023-03-08T13:16:39.800Z,8.55
2023-03-08T13:19:19.149Z,5.32
2023-03-08T13:21:57.881Z,6.18
2023-03-08T13:24:37.393Z,9.18
2023-03-08T13:27:20.532Z,5.72
2023-03-08T13:29:49.340Z,7.40
2023-03-08T13:32:20.554Z,9.75
2023-03-08T13:35:00.237Z,7.80
2023-03-08T13:37:32.075Z,6.18
2023-03-08T13:40:01.725Z,7.18
2023-03-08T13:42:30.604Z,8.80
2023-03-08T13:45:09.547Z,7.63
2023-03-08T13:47:40.896Z,6.82
2023-03-08T13:50:17.894Z,5.30
2023-03-08T13:52:48.630Z,6.47
2023-03-08T13:55:21.737Z,5.82
2023-03-08T13:57:53.131Z,7.00
2023-03-08T14:00:32.711Z,6.07
2023-03-08T14:03:03.427Z,5.82
2023-03-08T14:05:34.167Z,5.40
2023-03-08T14:08:05.989Z,6.82
2023-03-08T14:10:38.580Z,4.40
2023-03-08T14:13:08.982Z,6.97
2023-03-08T14:15:40.677Z,5.85
2023-03-08T14:18:17.694Z,6.70
2023-03-08T14:20:46.293Z,6.80
2023-03-08T14:23:24.829Z,4.53
2023-03-08T14:25:58.143Z,7.28
2023-03-08T14:28:41.315Z,5.87
2023-03-08T14:31:26.488Z,7.68
2023-03-08T14:33:59.628Z,6.05
2023-03-08T14:36:28.891Z,6.75
2023-03-08T14:38:59.999Z,8.68
2023-03-08T14:41:33.637Z,9.88
2023-03-08T14:44:03.463Z,8.30
2023-03-08T14:46:32.903Z,5.85
2023-03-08T14:49:02.964Z,8.13
2023-03-08T14:51:40.407Z,7.15
2023-03-08T14:54:24.015Z,8.63
2023-03-08T14:56:52.334Z,10.07
2023-03-08T14:59:27.796Z,8.23
2023-03-08T15:01:56.756Z,7.03
2023-03-08T15:04:26.663Z,9.70
2023-03-08T15:06:55.860Z,7.47
2023-03-08T15:09:26.901Z,8.25
2023-03-08T15:11:58.382Z,9.05
2023-03-08T15:14:28.194Z,10.15
2023-03-08T15:16:56.468Z,7.97
2023-03-08T15:19:24.885Z,7.05
2023-03-08T15:21:53.666Z,7.20
2023-03-08T15:24:21.934Z,11.10
2023-03-08T15:26:52.766Z,6.75
2023-03-08T15:29:27.440Z,9.05
2023-03-08T15:31:56.463Z,10.10
2023-03-08T15:34:27.929Z,8.82
2023-03-08T15:36:57.218Z,10.93
2023-03-08T15:39:25.536Z,8.18
2023-03-08T15:41:54.971Z,8.13
2023-03-08T15:44:23.427Z,8.63
2023-03-08T15:46:52.962Z,7.53
2023-03-08T15:49:21.401Z,9.63
2023-03-08T15:51:49.899Z,8.52
2023-03-08T15:54:18.039Z,6.55
2023-03-08T15:56:46.128Z,7.45
2023-03-08T15:59:16.017Z,9.20
2023-03-08T16:01:44.209Z,7.80
2023-03-08T16:04:12.367Z,6.80
2023-03-08T16:06:43.660Z,8.32
2023-03-08T16:09:11.777Z,7.28
2023-03-08T16:11:39.879Z,6.18
2023-03-08T16:14:08.233Z,7.95
2023-03-08T16:16:45.173Z,6.20
2023-03-08T16:19:14.696Z,7.78
2023-03-08T16:21:42.752Z,7.18
2023-03-08T16:24:12.169Z,9.48
2023-03-08T16:26:40.626Z,9.20
2023-03-08T16:29:08.689Z,8.52
2023-03-08T16:31:38.245Z,7.50
2023-03-08T16:34:07.395Z,8.20
2023-03-08T16:36:35.502Z,11.15
2023-03-08T16:39:04.085Z,6.55
2023-03-08T16:41:34.120Z,8.70
2023-03-08T16:44:02.193Z,7.60
2023-03-08T16:46:30.557Z,8.38
2023-03-08T16:49:00.246Z,6.20
2023-03-08T16:51:30.564Z,8.32
2023-03-08T16:53:58.681Z,6.88
2023-03-08T16:56:29.072Z,6.80
2023-03-08T16:58:58.955Z,7.82
2023-03-08T17:01:27.907Z,6.72
2023-03-08T17:03:57.649Z,6.07
2023-03-08T17:06:28.693Z,7.13
2023-03-08T17:08:58.384Z,8.40
2023-03-08T17:11:28.843Z,7.65
2023-03-08T17:14:02.450Z,7.35
2023-03-08T17:16:32.340Z,6.78
2023-03-08T17:19:02.012Z,8.80
2023-03-08T17:21:38.130Z,7.30
2023-03-08T17:24:08.286Z,6.40
2023-03-08T17:26:41.321Z,6.80
2023-03-08T17:29:09.581Z,8.13
2023-03-08T17:31:40.529Z,8.48
2023-03-08T17:34:09.303Z,10.50
2023-03-08T17:36:38.985Z,5.78
2023-03-08T17:39:07.347Z,10.30
2023-03-08T17:41:35.800Z,11.38
2023-03-08T17:44:04.326Z,9.15
2023-03-08T17:46:32.731Z,7.50
2023-03-08T17:49:01.155Z,9.13
2023-03-08T17:51:31.207Z,7.70
2023-03-08T17:54:03.095Z,8.02
2023-03-08T17:56:32.643Z,10.57
2023-03-08T17:59:02.781Z,8.65
2023-03-08T18:01:32.245Z,13.27
2023-03-08T18:04:01.326Z,17.33
2023-03-08T18:06:30.923Z,12.60
2023-03-08T18:09:02.024Z,14.02
2023-03-08T18:11:30.368Z,14.90
2023-03-08T18:13:58.460Z,15.55
2023-03-08T18:16:26.688Z,21.35
2023-03-08T18:18:54.951Z,16.33
2023-03-08T18:21:23.277Z,17.48
2023-03-08T18:23:54.835Z,17.30
2023-03-08T18:26:24.899Z,17.08
2023-03-08T18:28:53.425Z,18.58
2023-03-08T18:31:26.040Z,17.48
2023-03-08T18:33:55.533Z,15.30
2023-03-08T18:36:24.923Z,18.48
2023-03-08T18:38:53.188Z,17.83
2023-03-08T18:41:23.125Z,17.45
2023-03-08T18:43:54.734Z,16.27
2023-03-08T18:46:28.422Z,15.93
2023-03-08T18:48:56.888Z,16.98
2023-03-08T18:51:25.124Z,13.30
2023-03-08T18:53:55.068Z,15.68
2023-03-08T18:56:25.721Z,13.50
2023-03-08T18:58:55.943Z,13.60
2023-03-08T19:01:25.129Z,14.32
2023-03-08T19:03:53.663Z,13.23
2023-03-08T19:06:22.447Z,12.40
2023-03-08T19:08:50.746Z,12.90
2023-03-08T19:11:21.416Z,12.77
2023-03-08T19:13:50.485Z,13.30
2023-03-08T19:16:22.393Z,13.13
2023-03-08T19:18:53.200Z,11.55
2023-03-08T19:21:23.337Z,12.80
2023-03-08T19:23:51.967Z,12.50
2023-03-08T19:26:40.784Z,12.48
2023-03-08T19:29:11.951Z,12.68
2023-03-08T19:31:44.740Z,12.15
2023-03-08T19:34:14.245Z,9.77
2023-03-08T19:36:43.988Z,10.10
2023-03-08T19:39:16.062Z,8.77
2023-03-08T19:41:44.727Z,10.05
2023-03-08T19:44:12.827Z,8.45
2023-03-08T19:46:42.760Z,9.23
2023-03-08T19:49:15.941Z,12.27
2023-03-08T19:51:45.856Z,9.80
2023-03-08T19:54:15.393Z,10.73
2023-03-08T19:56:43.539Z,9.77
2023-03-08T19:59:12.392Z,8.75
2023-03-08T20:01:42.239Z,8.50
2023-03-08T20:04:11.835Z,9.73
2023-03-08T20:06:46.291Z,9.00
2023-03-08T20:09:18.197Z,10.73
2023-03-08T20:11:46.386Z,10.13
2023-03-08T20:14:14.491Z,9.93
2023-03-08T20:16:43.990Z,10.75
2023-03-08T20:19:12.625Z,8.55
2023-03-08T20:21:40.803Z,9.98
2023-03-08T20:24:09.255Z,10.63
2023-03-08T20:26:38.856Z,9.82
2023-03-08T20:29:07.131Z,11.07
2023-03-08T20:31:35.356Z,12.38
2023-03-08T20:34:05.039Z,9.52
2023-03-08T20:36:33.306Z,10.90
2023-03-08T20:39:02.127Z,9.57
2023-03-08T20:41:30.972Z,11.35
2023-03-08T20:43:59.112Z,10.38
2023-03-08T20:46:33.474Z,8.88
2023-03-08T20:49:02.613Z,11.15
2023-03-08T20:51:32.081Z,10.55
2023-03-08T20:54:00.613Z,10.30
2023-03-08T20:56:28.722Z,11.23
2023-03-08T20:59:00.677Z,12.13
2023-03-08T21:01:30.832Z,8.70
2023-03-08T21:03:59.056Z,10.55
2023-03-08T21:06:30.112Z,10.98
2023-03-08T21:09:00.534Z,11.40
2023-03-08T21:11:29.214Z,14.30
2023-03-08T21:13:57.690Z,12.60
2023-03-08T21:16:27.373Z,12.35
2023-03-08T21:19:03.277Z,12.63
2023-03-08T21:21:35.448Z,15.75
2023-03-08T21:24:06.719Z,14.20
2023-03-08T21:26:35.674Z,13.48
2023-03-08T21:29:06.956Z,13.48
2023-03-08T21:31:37.097Z,12.15
2023-03-08T21:34:05.998Z,13.13
2023-03-08T21:36:35.399Z,14.23
2023-03-08T21:39:06.162Z,14.07
2023-03-08T21:41:35.877Z,12.80
2023-03-08T21:44:06.832Z,13.70
2023-03-08T21:46:37.127Z,13.95
2023-03-08T21:49:05.756Z,13.07
2023-03-08T21:51:36.095Z,14.10
2023-03-08T21:54:06.022Z,13.98
2023-03-08T21:56:35.859Z,14.73
2023-03-08T21:59:04.597Z,16.52
2023-03-08T22:01:33.530Z,14.68
2023-03-08T22:04:02.927Z,14.43
2023-03-08T22:06:31.377Z,14.65
2023-03-08T22:08:59.809Z,13.00
2023-03-08T22:11:29.414Z,16.27
2023-03-08T22:14:01.665Z,13.50
2023-03-08T22:16:31.299Z,15.40
2023-03-08T22:19:03.276Z,15.77
2023-03-08T22:21:31.744Z,15.30
2023-03-08T22:24:02.434Z,13.73
2023-03-08T22:26:32.851Z,14.48
2023-03-08T22:29:01.099Z,13.65
2023-03-08T22:31:31.214Z,13.93
2023-03-08T22:34:01.496Z,14.85
2023-03-08T22:36:29.863Z,13.88
2023-03-08T22:38:58.192Z,14.98
2023-03-08T22:41:28.631Z,15.10
2023-03-08T22:43:58.227Z,16.90
2023-03-08T22:46:28.260Z,14.88
2023-03-08T22:48:58.339Z,15.40
2023-03-08T22:51:28.406Z,15.32
2023-03-08T22:53:59.219Z,15.82
2023-03-08T22:56:30.118Z,14.25
2023-03-08T22:59:00.497Z,14.85
2023-03-08T23:01:29.779Z,14.88
2023-03-08T23:03:59.566Z,16.35
2023-03-08T23:06:29.950Z,14.52
2023-03-08T23:08:59.337Z,15.15
2023-03-08T23:11:27.801Z,16.45
2023-03-08T23:13:56.509Z,16.63
2023-03-08T23:16:26.138Z,14.25
2023-03-08T23:18:55.330Z,15.90
2023-03-08T23:21:25.298Z,15.88
2023-03-08T23:23:53.571Z,17.25
2023-03-08T23:26:26.636Z,18.08
2023-03-08T23:28:55.318Z,15.77
2023-03-08T23:31:27.249Z,14.60
2023-03-08T23:33:56.878Z,16.23
2023-03-08T23:36:26.920Z,17.60
2023-03-08T23:38:55.422Z,17.13
2023-03-08T23:41:23.591Z,15.40
2023-03-08T23:43:54.883Z,16.30
2023-03-08T23:46:23.873Z,16.98
2023-03-08T23:48:55.095Z,16.73
2023-03-08T23:51:24.493Z,15.30
2023-03-08T23:53:54.548Z,16.38
2023-03-08T23:56:26.675Z,17.27
2023-03-08T23:58:56.125Z,16.48
